Terminal Aerodrome Forecast
Issued by NWS Omaha/Valley, NE

Home | Current Version | Previous Version | Graphics & Text | Print | Product List | Glossary On
Versions: 1 2 3 4 5 6 7 8 9 10 11 12 13 14 15 16
000
FTUS43 KOAX 202324
TAFOFK
TAF
KOFK 202324Z 2100/2124 VRB04KT P6SM VCSH SCT050 BKN080
     FM210200 20008KT P6SM SCT050 BKN080
     FM210700 30010KT 5SM -RA BKN050 OVC080
     FM211000 33010KT P6SM BKN090
     FM211400 35015G25KT P6SM SCT250=

USA.gov is the U.S. government's official web portal to all federal, state and local government web resources and services.